Time;durP1;ratioP1;P1;durP2;ratioP2;P2;SDS_P1;SDS_P2;PMS_P1;PMS_P2;Temp;Humidity;BMP_temperature;BMP_pressure;BME280_temperature;BME280_humidity;BME280_pressure;Samples;Min_cycle;Max_cycle;Signal;HPM_P1;HPM_P2
2023/05/10 00:00:09;;;;;;;13.90;7.20;;;;;;;-145.94;74.22;76262.03;5116375;28;20272;-71
2023/05/10 00:02:42;;;;;;;8.80;8.27;;;;;;;-145.94;74.16;76257.97;5098507;28;20196;-71
2023/05/10 00:05:09;;;;;;;10.27;7.17;;;;;;;-145.94;74.22;76260.00;5116232;28;20185;-71
2023/05/10 00:07:35;;;;;;;8.57;7.73;;;;;;;-145.94;74.18;76253.88;5117152;28;20204;-71
2023/05/10 00:10:01;;;;;;;7.47;6.77;;;;;;;-145.94;74.38;76255.91;5116656;28;20296;-71
2023/05/10 00:12:28;;;;;;;9.37;7.50;;;;;;;-145.94;74.52;76257.97;5116187;28;20654;-71
2023/05/10 00:14:54;;;;;;;7.70;7.00;;;;;;;-145.94;74.53;76257.97;5116664;28;20285;-71
2023/05/10 00:17:21;;;;;;;7.13;6.30;;;;;;;-145.94;74.50;76260.00;5115956;28;20779;-71
2023/05/10 00:19:48;;;;;;;17.50;6.83;;;;;;;-145.94;74.29;76270.19;5116007;28;20212;-71
2023/05/10 00:22:14;;;;;;;6.87;6.37;;;;;;;-145.94;74.23;76264.06;5115925;28;20220;-71
2023/05/10 00:24:40;;;;;;;6.70;6.20;;;;;;;-145.94;74.55;76253.88;5116465;28;20221;-71
2023/05/10 00:27:07;;;;;;;6.50;6.00;;;;;;;-145.94;74.71;76255.91;5116146;28;20217;-71
2023/05/10 00:29:33;;;;;;;8.27;6.77;;;;;;;-145.94;74.62;76255.91;5097473;28;20300;-71
2023/05/10 00:32:00;;;;;;;7.93;7.20;;;;;;;-145.94;74.56;76260.00;5097185;28;20227;-71
2023/05/10 00:34:27;;;;;;;7.87;7.07;;;;;;;-145.94;74.67;76255.91;5097668;28;20193;-71
2023/05/10 00:36:53;;;;;;;8.07;6.70;;;;;;;-145.94;74.25;76251.84;5097301;28;20755;-71
2023/05/10 00:39:19;;;;;;;6.80;6.30;;;;;;;-145.94;74.35;76257.97;5097380;28;20216;-71
2023/05/10 00:41:46;;;;;;;10.07;7.40;;;;;;;-145.94;74.27;76255.91;5115589;28;20213;-71
2023/05/10 00:44:12;;;;;;;9.63;7.67;;;;;;;-145.94;74.60;76251.84;5097231;28;20189;-71
2023/05/10 00:46:39;;;;;;;9.63;7.00;;;;;;;-145.94;74.50;76247.75;5097139;28;20240;-71
2023/05/10 00:49:06;;;;;;;8.97;8.07;;;;;;;-145.94;74.61;76253.88;5115929;28;20222;-71
2023/05/10 00:51:32;;;;;;;12.27;8.37;;;;;;;-145.94;74.44;76264.06;5115373;28;20185;-70
2023/05/10 00:53:59;;;;;;;10.43;8.23;;;;;;;-145.94;74.09;76266.13;5096991;28;20687;-71
2023/05/10 00:56:26;;;;;;;9.43;8.63;;;;;;;-145.94;74.47;76270.19;5096942;28;20213;-71
2023/05/10 00:58:53;;;;;;;12.53;9.67;;;;;;;-145.94;74.08;76272.22;5096936;28;20189;-71
2023/05/10 01:01:20;;;;;;;8.37;7.63;;;;;;;-145.94;74.60;76274.28;5097340;28;20660;-71
2023/05/10 01:03:46;;;;;;;9.37;7.77;;;;;;;-145.94;74.31;76270.19;5115476;28;20181;-71
2023/05/10 01:06:14;;;;;;;6.90;6.60;;;;;;;-145.94;73.94;76268.16;5096762;28;20636;-71
2023/05/10 01:08:41;;;;;;;7.10;6.60;;;;;;;-145.94;73.92;76278.34;5096708;28;20288;-71
2023/05/10 01:11:07;;;;;;;6.53;6.13;;;;;;;-145.94;73.73;76282.44;5114898;28;20249;-70
2023/05/10 01:13:40;;;;;;;5.93;5.80;;;;;;;-145.94;73.83;76298.72;5096690;28;20570;-70
2023/05/10 01:16:08;;;;;;;4.50;4.40;;;;;;;-145.94;73.23;76304.84;5115370;28;20202;-71
2023/05/10 01:18:44;;;;;;;11.17;3.90;;;;;;;-145.94;73.17;76310.97;5114819;28;20233;-71
2023/05/10 01:21:22;;;;;;;4.43;4.33;;;;;;;-145.94;73.28;76315.03;5115608;28;20272;-71
2023/05/10 01:24:19;;;;;;;4.10;3.73;;;;;;;-145.94;73.42;76315.03;5096990;28;20178;-71
2023/05/10 01:27:15;;;;;;;4.00;3.90;;;;;;;-145.94;73.38;76331.34;5114454;28;20248;-71
2023/05/10 01:30:10;;;;;;;4.27;4.17;;;;;;;-145.94;73.17;76329.31;5096732;28;20228;-70
2023/05/10 01:33:01;;;;;;;5.60;5.40;;;;;;;-145.94;73.41;76325.25;5096349;28;20196;-70
2023/05/10 01:35:38;;;;;;;6.87;6.47;;;;;;;-145.94;73.75;76331.34;5096280;28;20179;-70
2023/05/10 01:38:16;;;;;;;7.00;6.70;;;;;;;-145.94;74.17;76325.25;5114451;28;20232;-72
2023/05/10 01:40:54;;;;;;;7.70;7.27;;;;;;;-145.94;74.05;76317.09;5114711;28;20260;-72
2023/05/10 01:43:26;;;;;;;9.37;8.60;;;;;;;-145.94;73.79;76319.13;5114355;28;20605;-71
2023/05/10 01:46:10;;;;;;;20.00;9.73;;;;;;;-145.94;73.96;76333.41;5114529;28;20269;-72
2023/05/10 01:48:46;;;;;;;12.47;8.97;;;;;;;-145.94;74.06;76339.50;5114869;28;20609;-71
2023/05/10 01:51:18;;;;;;;10.83;9.23;;;;;;;-145.94;74.29;76341.56;5114190;28;20542;-71
2023/05/10 01:53:47;;;;;;;9.67;8.77;;;;;;;-145.94;73.70;76337.47;5114773;28;20260;-71
2023/05/10 01:56:16;;;;;;;11.20;9.00;;;;;;;-145.94;73.93;76343.59;5114351;28;20274;-71
2023/05/10 01:58:47;;;;;;;10.63;9.40;;;;;;;-145.94;73.70;76355.81;5095882;28;20185;-71
2023/05/10 02:01:14;;;;;;;9.50;8.80;;;;;;;-145.94;73.49;76351.75;5095854;28;20193;-71
2023/05/10 02:03:43;;;;;;;10.33;9.43;;;;;;;-145.94;73.64;76355.81;5114023;28;20655;-71
2023/05/10 02:06:12;;;;;;;13.53;9.40;;;;;;;-145.94;73.83;76363.97;5095696;28;20219;-71
2023/05/10 02:08:40;;;;;;;10.43;8.90;;;;;;;-145.94;73.52;76355.81;5114251;28;20189;-71
2023/05/10 02:11:08;;;;;;;12.03;9.73;;;;;;;-145.94;73.56;76363.97;5114382;28;20292;-71
2023/05/10 02:13:36;;;;;;;14.43;8.73;;;;;;;-145.94;73.40;76370.09;5095646;28;20194;-71
2023/05/10 02:16:05;;;;;;;10.97;9.33;;;;;;;-145.94;73.89;76370.09;5114047;28;20267;-71
2023/05/10 02:18:33;;;;;;;12.80;9.67;;;;;;;-145.94;73.88;76368.06;5114118;28;20553;-71
2023/05/10 02:21:02;;;;;;;10.77;9.33;;;;;;;-145.94;73.47;76368.06;5095793;28;20193;-71
2023/05/10 02:23:30;;;;;;;10.23;9.13;;;;;;;-145.94;73.61;76368.06;5113862;28;20554;-71
2023/05/10 02:25:58;;;;;;;10.47;9.43;;;;;;;-145.94;73.92;76374.19;5114179;28;20189;-71
2023/05/10 02:28:26;;;;;;;13.37;10.00;;;;;;;-145.94;74.09;76374.19;5113704;28;20280;-71
2023/05/10 02:30:54;;;;;;;10.87;9.37;;;;;;;-145.94;73.76;76376.22;5113883;28;20237;-71
2023/05/10 02:33:21;;;;;;;11.57;10.10;;;;;;;-145.94;74.26;76378.25;5095477;28;20626;-71
2023/05/10 02:35:50;;;;;;;14.57;9.37;;;;;;;-145.94;74.17;76382.34;5113538;28;20273;-71
2023/05/10 02:38:18;;;;;;;16.17;9.50;;;;;;;-145.94;74.22;76380.28;5095394;28;20217;-71
2023/05/10 02:40:47;;;;;;;11.13;9.77;;;;;;;-145.94;73.77;76382.34;5095332;28;20702;-70
2023/05/10 02:43:16;;;;;;;11.33;10.13;;;;;;;-145.94;73.67;76388.44;5095364;28;20215;-70
2023/05/10 02:45:46;;;;;;;10.53;9.43;;;;;;;-145.94;74.08;76388.44;5113543;28;20708;-70
2023/05/10 02:48:13;;;;;;;14.57;10.47;;;;;;;-145.94;73.91;76386.41;5095556;28;20189;-70
2023/05/10 02:50:44;;;;;;;17.57;10.60;;;;;;;-145.94;74.35;76376.22;5113995;28;20720;-70
2023/05/10 02:53:16;;;;;;;11.07;9.53;;;;;;;-145.94;73.87;76378.25;5113777;28;20230;-70
2023/05/10 02:55:45;;;;;;;16.87;10.73;;;;;;;-145.94;73.84;76368.06;5098123;28;20230;-70
2023/05/10 02:58:11;;;;;;;17.30;10.40;;;;;;;-145.94;74.09;76372.13;5099191;28;20239;-71
2023/05/10 03:00:37;;;;;;;11.77;9.93;;;;;;;-145.94;73.79;76363.97;5117502;28;20213;-70
2023/05/10 03:03:04;;;;;;;19.20;10.20;;;;;;;-145.94;74.03;76370.09;5117480;28;20213;-70
2023/05/10 03:05:30;;;;;;;15.10;10.37;;;;;;;-145.94;73.62;76374.19;5117711;28;20189;-70
2023/05/10 03:08:03;;;;;;;11.87;9.60;;;;;;;-145.94;73.98;76366.03;5116613;28;20205;-71
2023/05/10 03:10:32;;;;;;;15.13;9.80;;;;;;;-145.94;73.77;76376.22;5100099;28;20205;-71
2023/05/10 03:13:35;;;;;;;16.60;10.43;;;;;;;-145.94;74.01;76382.34;5117546;28;20219;-70
2023/05/10 03:16:07;;;;;;;17.57;9.90;;;;;;;-145.94;73.64;76382.34;5098930;28;20188;-70
2023/05/10 03:18:43;;;;;;;16.57;10.03;;;;;;;-145.94;73.58;76384.38;5098898;28;20182;-70
2023/05/10 03:21:13;;;;;;;11.70;9.23;;;;;;;-145.94;73.54;76386.41;5098869;28;20655;-70
2023/05/10 03:23:42;;;;;;;17.53;9.80;;;;;;;-145.94;73.65;76380.28;5117126;28;20169;-70
2023/05/10 03:26:09;;;;;;;16.63;10.57;;;;;;;-145.94;73.81;76384.38;5098680;28;20244;-71
2023/05/10 03:28:36;;;;;;;17.67;10.00;;;;;;;-145.94;73.87;76380.28;5116934;28;20213;-70
2023/05/10 03:31:05;;;;;;;18.23;10.83;;;;;;;-145.94;73.53;76380.28;5098541;28;20209;-70
2023/05/10 03:33:33;;;;;;;17.20;10.70;;;;;;;-145.94;73.81;76384.38;5098592;28;20189;-70
2023/05/10 03:35:59;;;;;;;20.73;11.57;;;;;;;-145.94;73.92;76384.38;5115479;28;20193;-71
2023/05/10 03:38:26;;;;;;;22.17;12.57;;;;;;;-145.94;74.03;76386.41;5098779;28;20594;-71
2023/05/10 03:40:55;;;;;;;23.70;12.37;;;;;;;-145.94;73.81;76386.41;5116766;28;20208;-70
2023/05/10 03:43:22;;;;;;;46.83;15.00;;;;;;;-145.94;73.83;76384.38;5098705;28;20246;-70
2023/05/10 03:45:48;;;;;;;34.10;16.53;;;;;;;-145.94;73.90;76386.41;5117110;28;20514;-71
2023/05/10 03:48:14;;;;;;;36.63;17.70;;;;;;;-145.94;74.17;76388.44;5116846;28;20272;-70
2023/05/10 03:50:42;;;;;;;39.93;18.30;;;;;;;-145.94;74.05;76388.44;5098246;28;20759;-70
2023/05/10 03:53:09;;;;;;;45.27;18.60;;;;;;;-145.94;74.20;76392.53;5117069;28;20263;-70
2023/05/10 03:55:36;;;;;;;47.67;19.50;;;;;;;-145.94;74.01;76392.53;5116581;28;20196;-70
2023/05/10 03:58:02;;;;;;;47.33;19.37;;;;;;;-145.94;74.17;76394.56;5116356;28;20212;-70
2023/05/10 04:00:29;;;;;;;50.40;19.17;;;;;;;-145.94;73.97;76388.44;5098970;28;20239;-70
2023/05/10 04:02:56;;;;;;;52.57;20.27;;;;;;;-145.94;74.43;76392.53;5098051;28;20289;-70
2023/05/10 04:05:22;;;;;;;56.17;23.73;;;;;;;-145.94;74.42;76384.38;5115672;28;20185;-70
2023/05/10 04:07:51;;;;;;;53.03;22.27;;;;;;;-145.94;74.30;76390.50;5098167;28;20698;-71
2023/05/10 04:10:17;;;;;;;51.00;23.33;;;;;;;-145.94;74.03;76382.34;5116415;28;20236;-71
2023/05/10 04:12:44;;;;;;;60.73;24.30;;;;;;;-145.94;74.35;76380.28;5116152;28;20220;-70
2023/05/10 04:15:11;;;;;;;61.23;23.53;;;;;;;-145.94;74.09;76378.25;5116328;28;20550;-70
2023/05/10 04:17:37;;;;;;;57.17;24.03;;;;;;;-145.94;73.94;76370.09;5115993;28;20295;-70
2023/05/10 04:20:04;;;;;;;55.43;22.40;;;;;;;-145.94;73.86;76376.22;5115922;28;20192;-70
2023/05/10 04:22:32;;;;;;;64.37;23.47;;;;;;;-145.94;74.34;76378.25;5116196;28;20220;-70
2023/05/10 04:24:58;;;;;;;62.80;23.73;;;;;;;-145.94;73.96;76388.44;5115890;28;20223;-70
2023/05/10 04:27:24;;;;;;;54.00;23.03;;;;;;;-145.94;74.44;76384.38;5115946;28;20307;-70
2023/05/10 04:29:51;;;;;;;54.03;22.67;;;;;;;-145.94;74.50;76376.22;5116624;28;20209;-70
2023/05/10 04:32:17;;;;;;;63.93;24.47;;;;;;;-145.94;74.45;76376.22;5115962;28;20290;-70
2023/05/10 04:34:44;;;;;;;53.87;22.73;;;;;;;-145.94;74.40;76384.38;5115649;28;20246;-70
2023/05/10 04:37:10;;;;;;;62.60;23.33;;;;;;;-145.94;74.12;76374.19;5097284;28;20322;-70
2023/05/10 04:39:37;;;;;;;61.40;24.20;;;;;;;-145.94;74.24;76370.09;5115611;28;20660;-70
2023/05/10 04:42:07;;;;;;;62.90;23.47;;;;;;;-145.94;74.43;76378.25;5115819;28;20185;-70
2023/05/10 04:44:33;;;;;;;63.23;24.13;;;;;;;-145.94;74.10;76376.22;5115432;28;20663;-70
2023/05/10 04:47:00;;;;;;;63.00;23.60;;;;;;;-145.94;74.39;76374.19;5115379;28;20296;-70
2023/05/10 04:49:26;;;;;;;62.10;24.50;;;;;;;-145.94;74.33;76378.25;5115382;28;20272;-70
2023/05/10 04:51:52;;;;;;;63.47;24.73;;;;;;;-145.94;74.20;76380.28;5115323;28;20634;-70
2023/05/10 04:54:19;;;;;;;67.20;25.93;;;;;;;-145.94;74.50;76376.22;5115311;28;20193;-70
2023/05/10 04:56:45;;;;;;;59.13;24.83;;;;;;;-145.94;74.50;76378.25;5115720;28;20197;-70
2023/05/10 04:59:12;;;;;;;64.20;24.47;;;;;;;-145.94;74.35;76378.25;5115412;28;20228;-70
2023/05/10 05:01:39;;;;;;;74.83;25.20;;;;;;;-145.94;74.23;76380.28;5115725;28;20761;-70
2023/05/10 05:04:06;;;;;;;72.60;25.17;;;;;;;-145.94;74.74;76376.22;5115345;28;20554;-70
2023/05/10 05:06:33;;;;;;;67.97;25.23;;;;;;;-145.94;74.61;76382.34;5115018;28;20212;-71
2023/05/10 05:08:59;;;;;;;76.77;27.73;;;;;;;-145.94;74.44;76372.13;5115339;28;20610;-70
2023/05/10 05:11:25;;;;;;;78.53;27.67;;;;;;;-145.94;74.19;76376.22;5114884;28;20296;-70
2023/05/10 05:13:52;;;;;;;66.57;25.93;;;;;;;-145.94;74.25;76376.22;5115185;28;20675;-70
2023/05/10 05:16:18;;;;;;;73.23;26.60;;;;;;;-145.94;74.27;76370.09;5114688;28;20300;-70
2023/05/10 05:18:45;;;;;;;65.90;26.33;;;;;;;-145.94;74.03;76376.22;5114171;28;20185;-70
2023/05/10 05:21:16;;;;;;;72.60;26.47;;;;;;;-145.94;74.25;76374.19;5115325;28;20177;-70
2023/05/10 05:23:43;;;;;;;69.90;26.93;;;;;;;-145.94;73.88;76392.53;5114737;28;20189;-70
2023/05/10 05:26:10;;;;;;;75.80;28.37;;;;;;;-145.94;74.38;76382.34;5114552;28;20274;-70
2023/05/10 05:28:37;;;;;;;72.17;27.80;;;;;;;-145.94;74.05;76382.34;5114548;28;20630;-70
2023/05/10 05:31:07;;;;;;;72.40;26.70;;;;;;;-145.94;74.15;76378.25;5114501;28;20240;-70
2023/05/10 05:33:34;;;;;;;68.80;26.13;;;;;;;-145.94;74.22;76376.22;5114835;28;20185;-70
2023/05/10 05:36:05;;;;;;;73.60;26.63;;;;;;;-145.94;73.97;76380.28;5114913;28;20191;-70
2023/05/10 05:38:31;;;;;;;71.37;27.20;;;;;;;-145.94;73.99;76386.41;5114508;28;20269;-70
2023/05/10 05:40:58;;;;;;;75.30;28.17;;;;;;;-145.94;74.26;76394.56;5114967;28;20267;-70
2023/05/10 05:43:24;;;;;;;79.00;26.83;;;;;;;-145.94;74.00;76396.59;5114898;28;20216;-70
2023/05/10 05:45:55;;;;;;;69.67;27.00;;;;;;;-145.94;74.20;76398.66;5114445;28;20189;-70
2023/05/10 05:48:21;;;;;;;74.63;27.00;;;;;;;-145.94;74.18;76392.53;5114572;28;20184;-70
2023/05/10 05:50:48;;;;;;;66.67;26.03;;;;;;;-145.94;74.03;76392.53;5114111;28;20201;-70
2023/05/10 05:53:14;;;;;;;63.87;26.30;;;;;;;-145.94;73.71;76400.69;5114519;28;20614;-70
2023/05/10 05:55:51;;;;;;;71.07;26.30;;;;;;;-145.94;73.73;76402.72;5114164;28;20209;-70
2023/05/10 05:58:17;;;;;;;64.90;26.03;;;;;;;-145.94;73.54;76398.66;5114409;28;20265;-70
2023/05/10 06:00:45;;;;;;;69.00;26.77;;;;;;;-145.94;73.80;76394.56;5114563;28;20701;-70
2023/05/10 06:03:11;;;;;;;66.93;26.50;;;;;;;-145.94;73.27;76400.69;5114617;28;20272;-70
2023/05/10 06:05:37;;;;;;;66.27;26.90;;;;;;;-145.94;73.40;76408.84;5113997;28;20216;-70
2023/05/10 06:08:04;;;;;;;64.93;26.67;;;;;;;-145.94;73.38;76398.66;5114907;28;20219;-70
2023/05/10 06:10:31;;;;;;;68.17;26.23;;;;;;;-145.94;73.03;76398.66;5113805;28;20703;-70
2023/05/10 06:12:57;;;;;;;66.73;26.40;;;;;;;-145.94;73.20;76394.56;5113929;28;20191;-70
2023/05/10 06:15:23;;;;;;;71.23;26.03;;;;;;;-145.94;73.38;76394.56;5114201;28;20172;-70
2023/05/10 06:17:50;;;;;;;62.60;26.10;;;;;;;-145.94;73.26;76390.50;5113843;28;20280;-70
2023/05/10 06:20:17;;;;;;;65.93;26.10;;;;;;;-145.94;72.91;76382.34;5113784;28;20227;-70
2023/05/10 06:22:43;;;;;;;69.03;27.60;;;;;;;-145.94;73.02;76390.50;5113766;28;20188;-70
2023/05/10 06:25:11;;;;;;;73.10;26.47;;;;;;;-145.94;72.90;76388.44;5113728;28;20213;-70
2023/05/10 06:27:37;;;;;;;67.70;24.57;;;;;;;-145.94;73.15;76382.34;5113768;28;20378;-70
2023/05/10 06:30:05;;;;;;;71.30;26.10;;;;;;;-145.94;72.77;76390.50;5113463;28;20203;-70
2023/05/10 06:32:39;;;;;;;71.37;25.50;;;;;;;-145.94;72.68;76388.44;5113869;28;20200;-70
2023/05/10 06:35:06;;;;;;;64.97;26.13;;;;;;;-145.94;72.96;76378.25;5113904;28;20169;-70
2023/05/10 06:37:32;;;;;;;69.70;26.33;;;;;;;-145.94;72.72;76378.25;5114036;28;20291;-70
2023/05/10 06:39:59;;;;;;;59.53;24.37;;;;;;;-145.94;72.35;76390.50;5113593;28;20615;-69
2023/05/10 06:42:26;;;;;;;64.03;25.97;;;;;;;-145.94;72.80;76390.50;5113635;28;20174;-70
2023/05/10 06:44:53;;;;;;;75.30;24.87;;;;;;;-145.94;72.54;76396.59;5113552;28;20554;-70
2023/05/10 06:47:19;;;;;;;66.93;25.70;;;;;;;-145.94;72.48;76396.59;5113557;28;20292;-70
2023/05/10 06:49:45;;;;;;;73.53;25.93;;;;;;;-145.94;72.12;76392.53;5113493;28;20271;-70
2023/05/10 06:52:12;;;;;;;67.23;26.93;;;;;;;-145.94;72.46;76384.38;5113389;28;20205;-70
2023/05/10 06:54:38;;;;;;;72.93;26.80;;;;;;;-145.94;72.50;76370.09;5113457;28;20268;-70
2023/05/10 06:57:05;;;;;;;60.93;26.00;;;;;;;-145.94;72.58;76366.03;5113564;28;20738;-70
2023/05/10 06:59:45;;;;;;;65.90;27.13;;;;;;;-145.94;72.56;76368.06;5113681;28;20182;-70
2023/05/10 07:02:11;;;;;;;61.87;26.23;;;;;;;-145.94;72.34;76366.03;5113691;28;20205;-70
2023/05/10 07:04:38;;;;;;;76.17;29.00;;;;;;;-145.94;72.27;76363.97;5113597;28;20181;-70
2023/05/10 07:07:04;;;;;;;64.30;28.17;;;;;;;-145.94;72.35;76355.81;5113235;28;20207;-70
2023/05/10 07:09:31;;;;;;;74.53;28.73;;;;;;;-145.94;72.35;76337.47;5113524;28;20268;-70
2023/05/10 07:11:57;;;;;;;75.97;28.80;;;;;;;-145.94;72.33;76321.16;5113207;28;20244;-70
2023/05/10 07:14:23;;;;;;;72.93;27.70;;;;;;;-145.94;71.50;76306.88;5113810;28;20216;-69
2023/05/10 07:16:50;;;;;;;72.60;27.93;;;;;;;-145.94;70.75;76306.88;5113320;28;20276;-69
2023/05/10 07:19:16;;;;;;;64.77;28.13;;;;;;;-145.94;70.07;76306.88;5113507;28;20195;-69
2023/05/10 07:21:43;;;;;;;70.83;29.13;;;;;;;-145.94;71.08;76292.63;5113425;28;20232;-69
2023/05/10 07:24:09;;;;;;;82.97;29.00;;;;;;;-145.94;71.01;76294.66;5113476;28;20191;-69
2023/05/10 07:26:36;;;;;;;72.63;28.80;;;;;;;-145.94;70.22;76313.00;5113017;28;20231;-69
2023/05/10 07:29:02;;;;;;;73.07;26.50;;;;;;;-145.94;69.92;76325.25;5113245;28;20603;-69
2023/05/10 07:31:29;;;;;;;78.53;28.07;;;;;;;-145.94;71.00;76308.94;5113025;28;20205;-69
2023/05/10 07:33:55;;;;;;;79.30;28.07;;;;;;;-145.94;69.52;76335.44;5113371;28;20193;-68
2023/05/10 07:36:22;;;;;;;61.80;26.33;;;;;;;-145.94;70.30;76333.41;5113001;28;20235;-69
2023/05/10 07:38:49;;;;;;;64.80;25.70;;;;;;;-145.94;70.10;76325.25;5113096;28;20194;-69
2023/05/10 07:41:15;;;;;;;68.30;25.97;;;;;;;-145.94;70.18;76321.16;5114856;28;20265;-69
2023/05/10 07:43:42;;;;;;;68.07;24.30;;;;;;;-145.94;69.84;76325.25;5117190;28;20535;-69
2023/05/10 07:46:09;;;;;;;65.13;25.53;;;;;;;-145.94;70.08;76331.34;5116627;28;20254;-69
2023/05/10 07:48:37;;;;;;;67.87;25.27;;;;;;;-145.94;70.30;76323.19;5116579;28;20192;-69
2023/05/10 07:51:03;;;;;;;67.83;27.43;;;;;;;-145.94;70.18;76321.16;5116726;28;20221;-69
2023/05/10 07:53:30;;;;;;;70.73;28.20;;;;;;;-145.94;70.46;76308.94;5116492;28;20242;-69
2023/05/10 07:55:58;;;;;;;68.07;26.30;;;;;;;-145.94;70.02;76315.03;5116700;28;20205;-70
2023/05/10 07:58:25;;;;;;;74.80;27.90;;;;;;;-145.94;69.84;76313.00;5116957;28;20235;-69
2023/05/10 08:00:51;;;;;;;72.07;26.63;;;;;;;-145.94;69.48;76310.97;5116631;28;20173;-69
2023/05/10 08:03:18;;;;;;;73.70;26.57;;;;;;;-145.94;69.30;76310.97;5116340;28;20216;-69
2023/05/10 08:05:44;;;;;;;67.17;28.17;;;;;;;-145.94;69.89;76310.97;5116296;28;20185;-69
2023/05/10 08:08:11;;;;;;;72.43;28.93;;;;;;;-145.94;68.77;76325.25;5116125;28;20247;-69
2023/05/10 08:10:37;;;;;;;73.50;27.27;;;;;;;-145.94;68.66;76337.47;5116155;28;20253;-69
2023/05/10 08:13:04;;;;;;;82.83;28.37;;;;;;;-145.94;68.97;76335.44;5116621;28;20296;-69
2023/05/10 08:15:30;;;;;;;71.17;27.00;;;;;;;-145.94;68.98;76339.50;5116384;28;20271;-69
2023/05/10 08:17:57;;;;;;;69.30;27.63;;;;;;;-145.94;69.46;76333.41;5116070;28;20235;-69
2023/05/10 08:20:23;;;;;;;72.17;29.80;;;;;;;-145.94;69.59;76339.50;5116021;28;20185;-69
2023/05/10 08:22:49;;;;;;;74.87;29.70;;;;;;;-145.94;69.41;76343.59;5116525;28;20216;-69
2023/05/10 08:25:17;;;;;;;84.17;26.37;;;;;;;-145.94;69.73;76337.47;5116431;28;20184;-69
2023/05/10 08:27:44;;;;;;;74.23;29.10;;;;;;;-145.94;69.52;76335.44;5115635;28;20248;-69
2023/05/10 08:30:11;;;;;;;69.73;29.13;;;;;;;-145.94;69.72;76339.50;5115831;28;20212;-69
2023/05/10 08:32:38;;;;;;;68.43;27.47;;;;;;;-145.94;69.85;76323.19;5115721;28;20706;-69
2023/05/10 08:35:05;;;;;;;69.03;29.77;;;;;;;-145.94;69.37;76333.41;5115744;28;20259;-69
2023/05/10 08:37:32;;;;;;;64.83;26.17;;;;;;;-145.94;69.84;76337.47;5115592;28;20225;-69
2023/05/10 08:39:59;;;;;;;59.30;24.73;;;;;;;-145.94;68.89;76355.81;5115607;28;20189;-69
2023/05/10 08:42:30;;;;;;;51.73;24.57;;;;;;;-145.94;69.30;76359.91;5115574;28;20224;-69
2023/05/10 08:44:57;;;;;;;46.33;22.70;;;;;;;-145.94;68.68;76366.03;5115887;28;20188;-69
2023/05/10 08:47:25;;;;;;;56.40;22.63;;;;;;;-145.94;69.43;76370.09;5115394;28;20236;-69
2023/05/10 08:49:52;;;;;;;54.90;21.33;;;;;;;-145.94;69.08;76370.09;5115968;28;20670;-69
2023/05/10 08:52:19;;;;;;;43.47;20.97;;;;;;;-145.94;69.70;76361.94;5115223;28;20347;-69
2023/05/10 08:54:46;;;;;;;48.13;21.23;;;;;;;-145.94;68.88;76361.94;5115578;28;20224;-69
2023/05/10 08:57:13;;;;;;;48.20;21.07;;;;;;;-145.94;68.66;76359.91;5115200;28;20205;-69
2023/05/10 08:59:39;;;;;;;52.13;21.03;;;;;;;-145.94;68.95;76359.91;5115239;28;20350;-69
2023/05/10 09:02:06;;;;;;;49.37;20.63;;;;;;;-145.94;68.46;76351.75;5115213;28;20266;-68
2023/05/10 09:04:33;;;;;;;43.13;21.17;;;;;;;-145.94;67.88;76335.44;5115401;28;20612;-68
2023/05/10 09:07:00;;;;;;;51.07;23.40;;;;;;;-145.94;67.36;76329.31;5115248;28;20243;-69
2023/05/10 09:09:27;;;;;;;48.03;22.47;;;;;;;-145.94;67.18;76321.16;5115624;28;20592;-69
2023/05/10 09:11:54;;;;;;;54.83;23.60;;;;;;;-145.94;66.96;76308.94;5114929;28;20291;-69
2023/05/10 09:14:24;;;;;;;58.67;23.60;;;;;;;-145.94;67.67;76288.53;5114945;28;20273;-69
2023/05/10 09:16:53;;;;;;;49.40;23.77;;;;;;;-145.94;67.47;76280.38;5114869;28;20580;-69
2023/05/10 09:19:20;;;;;;;41.60;20.27;;;;;;;-145.94;66.36;76255.91;5114854;28;20234;-69
2023/05/10 09:21:46;;;;;;;37.50;19.07;;;;;;;-145.94;66.68;76231.44;5115026;28;20633;-69
2023/05/10 09:24:12;;;;;;;36.93;16.90;;;;;;;-145.94;66.13;76213.09;5114719;28;20266;-68
2023/05/10 09:26:48;;;;;;;35.47;17.37;;;;;;;-145.94;65.68;76196.78;5115005;28;20292;-69
2023/05/10 09:29:14;;;;;;;44.63;19.50;;;;;;;-145.94;64.78;76200.88;5114959;28;20212;-70
2023/05/10 09:31:50;;;;;;;38.27;19.73;;;;;;;-145.94;63.88;76196.78;5114809;28;20208;-69
2023/05/10 09:34:28;;;;;;;50.23;22.00;;;;;;;-145.94;64.01;76198.81;5115168;28;20534;-69
2023/05/10 09:36:56;;;;;;;37.53;20.53;;;;;;;-145.94;64.35;76207.00;5114453;28;20295;-69
2023/05/10 09:39:33;;;;;;;41.40;22.00;;;;;;;-145.94;64.46;76231.44;5114731;28;20234;-69
2023/05/10 09:42:03;;;;;;;45.00;20.70;;;;;;;-145.94;65.76;76241.66;5114467;28;20189;-69
2023/05/10 09:44:31;;;;;;;44.03;19.47;;;;;;;-145.94;65.04;76253.88;5115159;28;20519;-69
2023/05/10 09:46:59;;;;;;;33.97;17.80;;;;;;;-145.94;64.10;76272.22;5114509;28;20295;-68
2023/05/10 09:49:25;;;;;;;37.13;19.77;;;;;;;-145.94;64.29;76274.28;5114307;28;20558;-68
2023/05/10 09:52:01;;;;;;;37.33;18.00;;;;;;;-145.94;64.27;76282.44;5096150;28;20643;-68
2023/05/10 09:54:27;;;;;;;38.90;17.83;;;;;;;-145.94;64.29;76282.44;5114789;28;20177;-68
2023/05/10 09:56:54;;;;;;;38.37;17.53;;;;;;;-145.94;65.12;76260.00;5114061;28;20291;-69
2023/05/10 09:59:21;;;;;;;32.47;16.23;;;;;;;-145.94;64.73;76255.91;5114416;28;20185;-68
2023/05/10 10:01:51;;;;;;;55.20;18.80;;;;;;;-145.94;65.63;76247.75;5114104;28;20189;-68
2023/05/10 10:04:20;;;;;;;40.40;18.53;;;;;;;-145.94;63.71;76280.38;5113834;28;20538;-68
2023/05/10 10:06:46;;;;;;;38.20;18.73;;;;;;;-145.94;64.01;76302.81;5113897;28;20197;-69
2023/05/10 10:09:13;;;;;;;33.37;17.50;;;;;;;-145.94;64.27;76310.97;5114461;28;20213;-68
2023/05/10 10:11:41;;;;;;;48.97;19.93;;;;;;;-145.94;64.34;76308.94;5113895;28;20216;-69
2023/05/10 10:14:07;;;;;;;35.80;18.43;;;;;;;-145.94;64.19;76313.00;5113864;28;20219;-68
2023/05/10 10:16:34;;;;;;;40.80;18.53;;;;;;;-145.94;65.26;76313.00;5113785;28;20232;-69
2023/05/10 10:19:01;;;;;;;32.90;16.53;;;;;;;-145.94;64.48;76317.09;5114135;28;20226;-69
2023/05/10 10:21:28;;;;;;;34.63;16.80;;;;;;;-145.94;64.13;76321.16;5113763;28;20670;-68
2023/05/10 10:23:55;;;;;;;29.13;16.37;;;;;;;-145.94;64.28;76343.59;5114330;28;20216;-68
2023/05/10 10:26:21;;;;;;;29.87;15.13;;;;;;;-145.94;64.42;76351.75;5113908;28;20256;-69
2023/05/10 10:29:07;;;;;;;30.03;16.77;;;;;;;-145.94;65.33;76355.81;5113969;28;20273;-68
2023/05/10 10:32:03;;;;;;;29.63;15.43;;;;;;;-145.94;65.04;76355.81;5113751;28;20197;-68
2023/05/10 10:34:31;;;;;;;27.00;15.23;;;;;;;-145.94;65.04;76355.81;5113705;28;20268;-68
2023/05/10 10:37:03;;;;;;;20.70;14.60;;;;;;;-145.94;65.15;76347.66;5113607;28;20212;-69
2023/05/10 10:39:30;;;;;;;30.63;15.23;;;;;;;-145.94;64.32;76345.63;5113965;28;20201;-69
2023/05/10 10:41:58;;;;;;;30.93;15.70;;;;;;;-145.94;64.12;76345.63;5114035;28;20276;-69
2023/05/10 10:44:31;;;;;;;32.37;16.37;;;;;;;-145.94;64.32;76339.50;5113635;28;20205;-69
2023/05/10 10:47:11;;;;;;;29.33;15.70;;;;;;;-145.94;64.10;76335.44;5113556;28;20704;-69
2023/05/10 10:49:42;;;;;;;28.40;15.27;;;;;;;-145.94;64.57;76333.41;5113761;28;20226;-69
2023/05/10 10:52:32;;;;;;;31.43;16.67;;;;;;;-145.94;64.50;76351.75;5113443;28;20219;-69
2023/05/10 10:54:59;;;;;;;34.43;19.63;;;;;;;-145.94;64.91;76363.97;5113799;28;20234;-69
2023/05/10 10:57:26;;;;;;;39.17;20.93;;;;;;;-145.94;65.02;76378.25;5113345;28;20247;-68
2023/05/10 11:00:23;;;;;;;38.27;21.93;;;;;;;-145.94;65.13;76366.03;5114058;28;20192;-69
2023/05/10 11:03:13;;;;;;;42.97;18.80;;;;;;;-145.94;66.06;76341.56;5107415;28;20540;-69
2023/05/10 11:05:46;;;;;;;40.73;19.67;;;;;;;-145.94;63.35;76363.97;5113923;28;20257;-69
2023/05/10 11:08:29;;;;;;;30.73;17.33;;;;;;;-145.94;64.80;76355.81;5114422;28;20198;-69
2023/05/10 11:10:58;;;;;;;33.63;17.27;;;;;;;-145.94;65.14;76351.75;5113409;28;20260;-69